createdAt,value
2022-08-22T00:04:41.761Z,11.8
2022-08-22T00:19:51.298Z,9.2
2022-08-22T00:35:00.357Z,9.8
2022-08-22T00:50:09.985Z,5.9
2022-08-22T01:05:19.355Z,8.2
2022-08-22T01:20:28.463Z,5.1
2022-08-22T01:35:37.652Z,8
2022-08-22T01:50:47.309Z,8.3
2022-08-22T02:05:56.834Z,10.2
2022-08-22T02:21:06.285Z,7.4
2022-08-22T02:36:15.399Z,10.3
2022-08-22T02:51:25.081Z,8.4
2022-08-22T03:06:37.010Z,8.1
2022-08-22T03:21:46.742Z,9.5
2022-08-22T03:36:56.249Z,12.4
2022-08-22T03:52:05.481Z,6.9
2022-08-22T04:07:33.653Z,9.1
2022-08-22T04:22:44.670Z,9
2022-08-22T04:37:53.558Z,11.5
2022-08-22T04:53:02.877Z,9.4
2022-08-22T05:08:12.104Z,11.6
2022-08-22T05:23:21.123Z,15.6
2022-08-22T05:38:32.808Z,18.4
2022-08-22T05:53:42.007Z,11.2
2022-08-22T06:08:51.736Z,11.9
2022-08-22T06:24:00.936Z,12.1
2022-08-22T06:39:13.539Z,9.2
2022-08-22T06:54:26.731Z,13.3
2022-08-22T07:09:35.933Z,9.6
2022-08-22T07:24:45.347Z,11.1
2022-08-22T07:39:54.956Z,9.2
2022-08-22T07:55:04.396Z,11.4
2022-08-22T08:10:14.092Z,8.4
2022-08-22T08:25:26.089Z,7.4
2022-08-22T08:40:39.145Z,7.9
2022-08-22T08:55:49.076Z,5.4
2022-08-22T09:10:58.179Z,8
2022-08-22T09:26:09.085Z,3.5
2022-08-22T09:41:21.967Z,5.4
2022-08-22T09:56:31.490Z,9.1
2022-08-22T10:11:43.921Z,4.8
2022-08-22T10:26:53.843Z,7.5
2022-08-22T10:42:04.243Z,5.2
2022-08-22T10:57:21.183Z,6.4
2022-08-22T11:12:36.030Z,3.4
2022-08-22T11:27:51.970Z,4.5
2022-08-22T11:43:04.497Z,5.5
2022-08-22T11:58:28.674Z,2.8
2022-08-22T12:13:41.954Z,4
2022-08-22T12:28:52.430Z,4.2
2022-08-22T12:44:03.275Z,3.7
2022-08-22T12:59:18.108Z,4.3
2022-08-22T13:14:26.943Z,8.3
2022-08-22T13:29:43.213Z,3.4
2022-08-22T13:44:57.855Z,4
2022-08-22T14:00:29.704Z,5.2
2022-08-22T14:15:46.495Z,5.8
2022-08-22T14:31:02.637Z,3.5
2022-08-22T14:46:16.430Z,6.1
2022-08-22T15:01:33.782Z,2.4
2022-08-22T15:16:47.715Z,3.8
2022-08-22T15:31:58.993Z,7.2
2022-08-22T15:47:25.544Z,2.1
2022-08-22T16:02:41.589Z,2.8
2022-08-22T16:17:53.894Z,2.6
2022-08-22T16:33:02.872Z,4.1
2022-08-22T16:48:11.269Z,3.3
2022-08-22T17:03:20.614Z,3.3
2022-08-22T17:18:29.476Z,5
2022-08-22T17:33:38.494Z,3.5
2022-08-22T17:48:47.450Z,6.9
2022-08-22T18:03:57.238Z,3.6
2022-08-22T18:19:05.943Z,3.9
2022-08-22T18:34:18.867Z,1.8
2022-08-22T18:49:28.963Z,4.3
2022-08-22T19:04:38.205Z,5.3
2022-08-22T19:19:47.207Z,3.8
2022-08-22T19:35:02.497Z,3.3
2022-08-22T19:50:13.535Z,4.9
2022-08-22T20:05:23.555Z,4.6
2022-08-22T20:20:36.301Z,6.7
2022-08-22T20:35:45.688Z,6
2022-08-22T20:50:54.822Z,8.3
2022-08-22T21:06:07.513Z,3.5
2022-08-22T21:21:18.455Z,10.8
2022-08-22T21:36:27.638Z,5.3
2022-08-22T21:51:37.342Z,5.4
2022-08-22T22:06:46.848Z,5.1
2022-08-22T22:21:56.235Z,4.4
2022-08-22T22:37:05.660Z,3.4
2022-08-22T22:52:15.736Z,7.7
2022-08-22T23:07:26.247Z,4.6
2022-08-22T23:22:34.969Z,2.9
2022-08-22T23:37:44.750Z,4.5
2022-08-22T23:52:54.432Z,3.5
